sensor_id;sensor_type;location;lat;lon;timestamp;P1;durP1;ratioP1;P2;durP2;ratioP2
6755;SDS011;3415;51.148;7.014;2022-08-01T06:53:51;14.57;;;9.13;;
6755;SDS011;3415;51.148;7.014;2022-08-01T06:56:19;15.47;;;9.80;;
6755;SDS011;3415;51.148;7.014;2022-08-01T06:58:46;15.37;;;10.47;;
6755;SDS011;3415;51.148;7.014;2022-08-01T07:01:13;11.33;;;8.13;;
6755;SDS011;3415;51.148;7.014;2022-08-01T07:03:40;12.50;;;8.80;;
6755;SDS011;3415;51.148;7.014;2022-08-01T07:06:07;12.10;;;7.47;;
6755;SDS011;3415;51.148;7.014;2022-08-01T07:08:34;11.40;;;8.03;;
6755;SDS011;3415;51.148;7.014;2022-08-01T07:11:03;20.47;;;8.90;;
6755;SDS011;3415;51.148;7.014;2022-08-01T07:13:30;14.43;;;9.00;;
6755;SDS011;3415;51.148;7.014;2022-08-01T07:15:57;12.60;;;8.43;;
6755;SDS011;3415;51.148;7.014;2022-08-01T07:18:24;12.50;;;8.00;;
6755;SDS011;3415;51.148;7.014;2022-08-01T07:20:51;17.53;;;8.43;;
6755;SDS011;3415;51.148;7.014;2022-08-01T07:23:18;11.47;;;7.97;;
6755;SDS011;3415;51.148;7.014;2022-08-01T07:25:45;13.43;;;8.70;;
6755;SDS011;3415;51.148;7.014;2022-08-01T07:28:15;12.27;;;7.90;;
6755;SDS011;3415;51.148;7.014;2022-08-01T07:30:42;14.30;;;8.50;;
6755;SDS011;3415;51.148;7.014;2022-08-01T07:33:09;12.20;;;8.37;;
6755;SDS011;3415;51.148;7.014;2022-08-01T07:35:36;12.90;;;9.17;;
6755;SDS011;3415;51.148;7.014;2022-08-01T07:38:04;13.03;;;8.80;;
6755;SDS011;3415;51.148;7.014;2022-08-01T07:40:31;14.50;;;9.23;;
6755;SDS011;3415;51.148;7.014;2022-08-01T07:42:58;12.90;;;7.50;;
6755;SDS011;3415;51.148;7.014;2022-08-01T07:45:27;11.13;;;8.20;;
6755;SDS011;3415;51.148;7.014;2022-08-01T07:47:54;11.80;;;8.43;;
6755;SDS011;3415;51.148;7.014;2022-08-01T07:50:22;9.70;;;7.13;;
6755;SDS011;3415;51.148;7.014;2022-08-01T07:52:49;11.33;;;8.60;;
6755;SDS011;3415;51.148;7.014;2022-08-01T07:55:17;10.83;;;7.67;;
6755;SDS011;3415;51.148;7.014;2022-08-01T07:57:44;10.00;;;6.97;;
6755;SDS011;3415;51.148;7.014;2022-08-01T08:00:12;11.60;;;7.50;;
6755;SDS011;3415;51.148;7.014;2022-08-01T08:02:41;10.27;;;7.50;;
6755;SDS011;3415;51.148;7.014;2022-08-01T08:05:09;10.17;;;6.80;;
6755;SDS011;3415;51.148;7.014;2022-08-01T08:07:36;10.40;;;6.87;;
6755;SDS011;3415;51.148;7.014;2022-08-01T08:10:04;9.67;;;6.23;;
6755;SDS011;3415;51.148;7.014;2022-08-01T08:12:32;7.23;;;5.50;;
6755;SDS011;3415;51.148;7.014;2022-08-01T08:15:00;8.20;;;6.30;;
6755;SDS011;3415;51.148;7.014;2022-08-01T08:17:30;6.47;;;5.17;;
6755;SDS011;3415;51.148;7.014;2022-08-01T08:20:00;11.23;;;5.83;;
6755;SDS011;3415;51.148;7.014;2022-08-01T08:22:27;7.23;;;5.30;;
6755;SDS011;3415;51.148;7.014;2022-08-01T08:24:54;8.30;;;5.33;;
6755;SDS011;3415;51.148;7.014;2022-08-01T08:27:21;6.40;;;5.30;;
6755;SDS011;3415;51.148;7.014;2022-08-01T08:29:48;7.57;;;4.90;;
6755;SDS011;3415;51.148;7.014;2022-08-01T08:32:15;10.27;;;5.00;;
6755;SDS011;3415;51.148;7.014;2022-08-01T08:34:42;8.50;;;5.57;;
6755;SDS011;3415;51.148;7.014;2022-08-01T08:37:11;8.73;;;6.37;;
6755;SDS011;3415;51.148;7.014;2022-08-01T08:39:38;8.17;;;6.20;;
6755;SDS011;3415;51.148;7.014;2022-08-01T08:42:06;9.40;;;6.53;;
6755;SDS011;3415;51.148;7.014;2022-08-01T08:44:34;9.83;;;4.87;;
6755;SDS011;3415;51.148;7.014;2022-08-01T08:47:02;8.00;;;4.73;;
6755;SDS011;3415;51.148;7.014;2022-08-01T08:49:31;4.40;;;3.80;;
6755;SDS011;3415;51.148;7.014;2022-08-01T08:52:00;4.80;;;3.47;;
6755;SDS011;3415;51.148;7.014;2022-08-01T08:54:29;4.03;;;3.63;;
6755;SDS011;3415;51.148;7.014;2022-08-01T08:56:59;9.07;;;3.87;;
6755;SDS011;3415;51.148;7.014;2022-08-01T08:59:27;3.67;;;3.10;;
6755;SDS011;3415;51.148;7.014;2022-08-01T09:01:55;4.70;;;3.50;;
6755;SDS011;3415;51.148;7.014;2022-08-01T09:04:22;3.10;;;2.80;;
6755;SDS011;3415;51.148;7.014;2022-08-01T09:06:50;4.07;;;3.40;;
6755;SDS011;3415;51.148;7.014;2022-08-01T09:09:17;4.43;;;3.20;;
6755;SDS011;3415;51.148;7.014;2022-08-01T09:11:46;4.27;;;3.57;;
6755;SDS011;3415;51.148;7.014;2022-08-01T09:14:14;5.67;;;3.53;;
6755;SDS011;3415;51.148;7.014;2022-08-01T09:16:58;3.60;;;2.90;;
6755;SDS011;3415;51.148;7.014;2022-08-01T09:19:27;3.67;;;3.13;;
6755;SDS011;3415;51.148;7.014;2022-08-01T09:22:03;5.60;;;3.43;;
6755;SDS011;3415;51.148;7.014;2022-08-01T09:24:33;12.87;;;3.60;;
6755;SDS011;3415;51.148;7.014;2022-08-01T09:27:05;4.77;;;3.33;;
6755;SDS011;3415;51.148;7.014;2022-08-01T09:29:43;4.83;;;3.47;;
6755;SDS011;3415;51.148;7.014;2022-08-01T09:32:10;3.27;;;2.47;;
6755;SDS011;3415;51.148;7.014;2022-08-01T09:34:37;2.60;;;2.40;;
6755;SDS011;3415;51.148;7.014;2022-08-01T09:37:05;3.47;;;2.40;;
6755;SDS011;3415;51.148;7.014;2022-08-01T09:39:32;5.23;;;2.97;;
6755;SDS011;3415;51.148;7.014;2022-08-01T09:42:21;3.10;;;2.80;;
6755;SDS011;3415;51.148;7.014;2022-08-01T09:44:49;6.30;;;2.30;;
6755;SDS011;3415;51.148;7.014;2022-08-01T09:47:17;5.30;;;2.50;;
6755;SDS011;3415;51.148;7.014;2022-08-01T09:49:56;3.27;;;2.57;;
6755;SDS011;3415;51.148;7.014;2022-08-01T09:52:25;4.40;;;2.90;;
6755;SDS011;3415;51.148;7.014;2022-08-01T09:54:54;2.57;;;2.30;;
6755;SDS011;3415;51.148;7.014;2022-08-01T09:57:24;2.60;;;2.40;;
6755;SDS011;3415;51.148;7.014;2022-08-01T09:59:53;2.53;;;2.33;;
6755;SDS011;3415;51.148;7.014;2022-08-01T10:02:27;3.63;;;2.47;;
6755;SDS011;3415;51.148;7.014;2022-08-01T10:04:57;3.87;;;2.60;;
6755;SDS011;3415;51.148;7.014;2022-08-01T10:07:25;5.80;;;2.20;;
6755;SDS011;3415;51.148;7.014;2022-08-01T10:09:52;2.07;;;1.90;;
6755;SDS011;3415;51.148;7.014;2022-08-01T10:12:20;2.53;;;2.10;;
6755;SDS011;3415;51.148;7.014;2022-08-01T10:14:50;2.20;;;2.10;;
6755;SDS011;3415;51.148;7.014;2022-08-01T10:17:20;2.27;;;2.07;;
6755;SDS011;3415;51.148;7.014;2022-08-01T10:19:50;2.10;;;1.87;;
6755;SDS011;3415;51.148;7.014;2022-08-01T10:22:19;2.83;;;1.90;;
6755;SDS011;3415;51.148;7.014;2022-08-01T10:24:53;3.23;;;2.30;;
6755;SDS011;3415;51.148;7.014;2022-08-01T10:27:25;3.07;;;2.50;;
6755;SDS011;3415;51.148;7.014;2022-08-01T10:29:55;2.20;;;2.10;;
6755;SDS011;3415;51.148;7.014;2022-08-01T10:32:28;3.03;;;2.30;;
6755;SDS011;3415;51.148;7.014;2022-08-01T10:34:56;1.90;;;1.70;;
6755;SDS011;3415;51.148;7.014;2022-08-01T10:37:25;2.53;;;2.20;;
6755;SDS011;3415;51.148;7.014;2022-08-01T10:39:52;2.10;;;1.90;;
6755;SDS011;3415;51.148;7.014;2022-08-01T10:42:20;3.10;;;2.03;;
6755;SDS011;3415;51.148;7.014;2022-08-01T10:44:49;4.40;;;2.90;;
6755;SDS011;3415;51.148;7.014;2022-08-01T10:47:18;2.53;;;2.33;;
6755;SDS011;3415;51.148;7.014;2022-08-01T10:49:53;1.80;;;1.70;;
6755;SDS011;3415;51.148;7.014;2022-08-01T10:52:28;4.00;;;2.33;;
6755;SDS011;3415;51.148;7.014;2022-08-01T10:55:01;2.53;;;2.20;;
6755;SDS011;3415;51.148;7.014;2022-08-01T10:57:40;6.40;;;2.10;;
6755;SDS011;3415;51.148;7.014;2022-08-01T11:00:10;2.37;;;2.17;;
6755;SDS011;3415;51.148;7.014;2022-08-01T11:02:56;2.20;;;2.00;;
6755;SDS011;3415;51.148;7.014;2022-08-01T11:05:25;4.67;;;2.53;;
6755;SDS011;3415;51.148;7.014;2022-08-01T11:07:54;2.33;;;2.10;;
6755;SDS011;3415;51.148;7.014;2022-08-01T11:10:23;1.73;;;1.63;;
6755;SDS011;3415;51.148;7.014;2022-08-01T11:12:58;2.40;;;1.90;;
6755;SDS011;3415;51.148;7.014;2022-08-01T11:15:29;3.33;;;2.10;;
6755;SDS011;3415;51.148;7.014;2022-08-01T11:18:00;1.90;;;1.80;;
6755;SDS011;3415;51.148;7.014;2022-08-01T11:20:29;2.00;;;1.90;;
6755;SDS011;3415;51.148;7.014;2022-08-01T11:26:06;1.70;;;1.60;;
6755;SDS011;3415;51.148;7.014;2022-08-01T11:28:43;3.93;;;1.50;;
6755;SDS011;3415;51.148;7.014;2022-08-01T11:31:30;3.03;;;1.90;;
6755;SDS011;3415;51.148;7.014;2022-08-01T11:33:58;1.80;;;1.70;;
6755;SDS011;3415;51.148;7.014;2022-08-01T11:36:26;3.47;;;2.10;;
6755;SDS011;3415;51.148;7.014;2022-08-01T11:39:13;2.53;;;1.97;;
6755;SDS011;3415;51.148;7.014;2022-08-01T11:41:45;2.17;;;1.97;;
6755;SDS011;3415;51.148;7.014;2022-08-01T11:44:18;2.63;;;1.87;;
6755;SDS011;3415;51.148;7.014;2022-08-01T11:49:44;1.87;;;1.57;;
6755;SDS011;3415;51.148;7.014;2022-08-01T11:52:15;1.63;;;1.53;;
6755;SDS011;3415;51.148;7.014;2022-08-01T11:54:45;1.70;;;1.53;;
6755;SDS011;3415;51.148;7.014;2022-08-01T11:57:17;1.50;;;1.40;;
6755;SDS011;3415;51.148;7.014;2022-08-01T11:59:47;1.80;;;1.70;;
6755;SDS011;3415;51.148;7.014;2022-08-01T12:02:20;2.93;;;1.50;;
6755;SDS011;3415;51.148;7.014;2022-08-01T12:04:49;1.97;;;1.80;;
6755;SDS011;3415;51.148;7.014;2022-08-01T12:07:20;2.20;;;1.70;;
6755;SDS011;3415;51.148;7.014;2022-08-01T12:09:56;1.33;;;1.23;;
6755;SDS011;3415;51.148;7.014;2022-08-01T12:12:26;2.10;;;1.23;;
6755;SDS011;3415;51.148;7.014;2022-08-01T12:14:55;2.10;;;1.40;;
6755;SDS011;3415;51.148;7.014;2022-08-01T12:17:29;1.57;;;1.47;;
6755;SDS011;3415;51.148;7.014;2022-08-01T12:19:58;1.10;;;1.07;;
6755;SDS011;3415;51.148;7.014;2022-08-01T12:22:25;2.03;;;1.40;;
6755;SDS011;3415;51.148;7.014;2022-08-01T12:24:53;2.87;;;1.30;;
6755;SDS011;3415;51.148;7.014;2022-08-01T12:27:24;1.10;;;1.10;;
6755;SDS011;3415;51.148;7.014;2022-08-01T12:29:53;1.30;;;1.20;;
6755;SDS011;3415;51.148;7.014;2022-08-01T12:32:22;1.43;;;1.30;;
6755;SDS011;3415;51.148;7.014;2022-08-01T12:34:53;2.60;;;1.70;;
6755;SDS011;3415;51.148;7.014;2022-08-01T12:37:22;1.43;;;1.33;;
6755;SDS011;3415;51.148;7.014;2022-08-01T12:39:49;1.00;;;1.00;;
6755;SDS011;3415;51.148;7.014;2022-08-01T12:42:16;1.10;;;1.10;;
6755;SDS011;3415;51.148;7.014;2022-08-01T12:44:44;1.43;;;1.33;;
6755;SDS011;3415;51.148;7.014;2022-08-01T12:47:16;2.20;;;1.40;;
6755;SDS011;3415;51.148;7.014;2022-08-01T12:49:44;1.80;;;1.70;;
6755;SDS011;3415;51.148;7.014;2022-08-01T12:52:13;1.40;;;1.30;;
6755;SDS011;3415;51.148;7.014;2022-08-01T12:55:01;1.70;;;1.60;;
6755;SDS011;3415;51.148;7.014;2022-08-01T12:57:35;1.77;;;1.67;;
6755;SDS011;3415;51.148;7.014;2022-08-01T13:00:06;1.50;;;1.40;;
6755;SDS011;3415;51.148;7.014;2022-08-01T13:02:36;2.13;;;1.90;;
6755;SDS011;3415;51.148;7.014;2022-08-01T13:05:05;4.47;;;1.83;;
6755;SDS011;3415;51.148;7.014;2022-08-01T13:07:39;2.70;;;2.10;;
6755;SDS011;3415;51.148;7.014;2022-08-01T13:10:12;1.83;;;1.73;;
6755;SDS011;3415;51.148;7.014;2022-08-01T13:12:50;2.33;;;1.80;;
6755;SDS011;3415;51.148;7.014;2022-08-01T13:15:20;3.10;;;1.60;;
6755;SDS011;3415;51.148;7.014;2022-08-01T13:17:57;1.80;;;1.70;;
6755;SDS011;3415;51.148;7.014;2022-08-01T13:20:27;1.30;;;1.20;;
6755;SDS011;3415;51.148;7.014;2022-08-01T13:23:17;1.70;;;1.53;;
6755;SDS011;3415;51.148;7.014;2022-08-01T13:25:46;1.53;;;1.43;;
6755;SDS011;3415;51.148;7.014;2022-08-01T13:28:15;1.50;;;1.40;;
6755;SDS011;3415;51.148;7.014;2022-08-01T13:30:55;1.60;;;1.50;;
6755;SDS011;3415;51.148;7.014;2022-08-01T13:33:25;1.80;;;1.70;;
6755;SDS011;3415;51.148;7.014;2022-08-01T13:35:54;2.70;;;1.53;;
6755;SDS011;3415;51.148;7.014;2022-08-01T13:38:24;1.20;;;1.10;;
6755;SDS011;3415;51.148;7.014;2022-08-01T13:41:08;2.73;;;1.30;;
6755;SDS011;3415;51.148;7.014;2022-08-01T13:43:35;2.60;;;1.63;;
6755;SDS011;3415;51.148;7.014;2022-08-01T13:46:03;1.40;;;1.30;;
6755;SDS011;3415;51.148;7.014;2022-08-01T13:48:30;1.50;;;1.40;;
6755;SDS011;3415;51.148;7.014;2022-08-01T13:50:58;1.70;;;1.60;;
6755;SDS011;3415;51.148;7.014;2022-08-01T13:53:27;1.70;;;1.60;;
6755;SDS011;3415;51.148;7.014;2022-08-01T13:55:55;1.77;;;1.63;;
6755;SDS011;3415;51.148;7.014;2022-08-01T13:58:22;4.70;;;1.53;;
6755;SDS011;3415;51.148;7.014;2022-08-01T14:00:49;3.53;;;1.67;;
6755;SDS011;3415;51.148;7.014;2022-08-01T14:03:17;1.50;;;1.40;;
6755;SDS011;3415;51.148;7.014;2022-08-01T14:05:45;1.60;;;1.40;;
6755;SDS011;3415;51.148;7.014;2022-08-01T14:08:12;1.50;;;1.40;;
6755;SDS011;3415;51.148;7.014;2022-08-01T14:10:40;1.80;;;1.70;;
6755;SDS011;3415;51.148;7.014;2022-08-01T14:13:07;1.63;;;1.40;;
6755;SDS011;3415;51.148;7.014;2022-08-01T14:15:35;2.03;;;1.83;;
6755;SDS011;3415;51.148;7.014;2022-08-01T14:18:02;3.10;;;1.63;;
6755;SDS011;3415;51.148;7.014;2022-08-01T14:20:30;2.00;;;1.67;;
6755;SDS011;3415;51.148;7.014;2022-08-01T14:22:57;1.70;;;1.60;;
6755;SDS011;3415;51.148;7.014;2022-08-01T14:25:25;2.30;;;1.47;;
6755;SDS011;3415;51.148;7.014;2022-08-01T14:27:53;1.47;;;1.37;;
6755;SDS011;3415;51.148;7.014;2022-08-01T14:30:20;1.50;;;1.40;;
6755;SDS011;3415;51.148;7.014;2022-08-01T14:32:47;1.43;;;1.40;;
6755;SDS011;3415;51.148;7.014;2022-08-01T14:35:14;1.73;;;1.63;;
6755;SDS011;3415;51.148;7.014;2022-08-01T14:37:42;3.87;;;1.60;;
6755;SDS011;3415;51.148;7.014;2022-08-01T14:40:09;2.73;;;1.97;;
6755;SDS011;3415;51.148;7.014;2022-08-01T14:42:37;4.70;;;2.10;;
6755;SDS011;3415;51.148;7.014;2022-08-01T14:45:07;2.03;;;1.93;;
6755;SDS011;3415;51.148;7.014;2022-08-01T14:47:36;1.90;;;1.80;;
6755;SDS011;3415;51.148;7.014;2022-08-01T14:50:04;1.57;;;1.40;;
6755;SDS011;3415;51.148;7.014;2022-08-01T14:52:34;2.20;;;2.00;;
6755;SDS011;3415;51.148;7.014;2022-08-01T14:55:03;3.57;;;1.87;;
6755;SDS011;3415;51.148;7.014;2022-08-01T14:57:33;4.57;;;2.20;;
6755;SDS011;3415;51.148;7.014;2022-08-01T15:00:00;3.10;;;1.70;;
6755;SDS011;3415;51.148;7.014;2022-08-01T15:02:31;2.50;;;1.90;;
6755;SDS011;3415;51.148;7.014;2022-08-01T15:04:59;2.07;;;1.90;;
6755;SDS011;3415;51.148;7.014;2022-08-01T15:07:28;1.60;;;1.50;;
6755;SDS011;3415;51.148;7.014;2022-08-01T15:09:56;2.77;;;2.03;;
6755;SDS011;3415;51.148;7.014;2022-08-01T15:12:23;1.93;;;1.83;;
6755;SDS011;3415;51.148;7.014;2022-08-01T15:14:50;2.10;;;2.00;;
6755;SDS011;3415;51.148;7.014;2022-08-01T15:17:21;2.00;;;1.90;;
6755;SDS011;3415;51.148;7.014;2022-08-01T15:19:53;3.23;;;1.80;;
6755;SDS011;3415;51.148;7.014;2022-08-01T15:22:22;2.80;;;1.97;;
6755;SDS011;3415;51.148;7.014;2022-08-01T15:24:51;2.23;;;1.67;;
6755;SDS011;3415;51.148;7.014;2022-08-01T15:27:19;2.13;;;2.03;;
6755;SDS011;3415;51.148;7.014;2022-08-01T15:29:47;2.80;;;2.50;;
6755;SDS011;3415;51.148;7.014;2022-08-01T15:32:15;4.23;;;2.23;;
6755;SDS011;3415;51.148;7.014;2022-08-01T15:34:43;2.20;;;2.00;;
6755;SDS011;3415;51.148;7.014;2022-08-01T15:37:12;2.10;;;2.00;;
6755;SDS011;3415;51.148;7.014;2022-08-01T15:39:40;1.80;;;1.70;;
6755;SDS011;3415;51.148;7.014;2022-08-01T15:42:08;1.93;;;1.83;;
6755;SDS011;3415;51.148;7.014;2022-08-01T15:44:37;2.00;;;1.90;;
6755;SDS011;3415;51.148;7.014;2022-08-01T15:47:05;1.93;;;1.83;;
6755;SDS011;3415;51.148;7.014;2022-08-01T15:49:32;2.50;;;1.93;;
6755;SDS011;3415;51.148;7.014;2022-08-01T15:52:01;2.10;;;2.00;;
6755;SDS011;3415;51.148;7.014;2022-08-01T15:54:31;2.20;;;2.00;;
6755;SDS011;3415;51.148;7.014;2022-08-01T15:56:58;2.30;;;2.10;;
6755;SDS011;3415;51.148;7.014;2022-08-01T15:59:25;2.00;;;1.90;;
6755;SDS011;3415;51.148;7.014;2022-08-01T16:01:53;2.47;;;2.27;;
6755;SDS011;3415;51.148;7.014;2022-08-01T16:04:20;3.33;;;2.10;;
6755;SDS011;3415;51.148;7.014;2022-08-01T16:06:47;2.60;;;2.20;;
6755;SDS011;3415;51.148;7.014;2022-08-01T16:09:15;2.90;;;1.93;;
6755;SDS011;3415;51.148;7.014;2022-08-01T16:11:44;2.50;;;2.30;;
6755;SDS011;3415;51.148;7.014;2022-08-01T16:14:11;4.80;;;2.23;;
6755;SDS011;3415;51.148;7.014;2022-08-01T16:16:38;2.43;;;2.23;;
6755;SDS011;3415;51.148;7.014;2022-08-01T16:19:05;2.77;;;2.57;;
6755;SDS011;3415;51.148;7.014;2022-08-01T16:21:33;4.13;;;2.93;;
6755;SDS011;3415;51.148;7.014;2022-08-01T16:24:00;3.27;;;2.40;;
6755;SDS011;3415;51.148;7.014;2022-08-01T16:26:27;2.50;;;2.40;;
6755;SDS011;3415;51.148;7.014;2022-08-01T16:28:55;2.70;;;2.50;;
6755;SDS011;3415;51.148;7.014;2022-08-01T16:31:22;2.80;;;2.60;;
6755;SDS011;3415;51.148;7.014;2022-08-01T16:33:50;3.03;;;2.83;;
6755;SDS011;3415;51.148;7.014;2022-08-01T16:36:17;2.60;;;2.50;;
6755;SDS011;3415;51.148;7.014;2022-08-01T16:38:44;3.10;;;2.80;;
6755;SDS011;3415;51.148;7.014;2022-08-01T16:41:12;2.50;;;2.30;;
6755;SDS011;3415;51.148;7.014;2022-08-01T16:43:39;3.50;;;2.23;;
6755;SDS011;3415;51.148;7.014;2022-08-01T16:46:08;2.60;;;2.20;;
6755;SDS011;3415;51.148;7.014;2022-08-01T16:48:35;2.50;;;1.90;;
6755;SDS011;3415;51.148;7.014;2022-08-01T16:51:02;2.20;;;2.00;;
6755;SDS011;3415;51.148;7.014;2022-08-01T16:53:29;2.43;;;2.23;;
6755;SDS011;3415;51.148;7.014;2022-08-01T16:55:56;2.60;;;2.37;;
6755;SDS011;3415;51.148;7.014;2022-08-01T16:58:23;2.87;;;2.20;;
6755;SDS011;3415;51.148;7.014;2022-08-01T17:00:50;2.77;;;2.57;;
6755;SDS011;3415;51.148;7.014;2022-08-01T17:03:18;2.17;;;2.07;;
6755;SDS011;3415;51.148;7.014;2022-08-01T17:05:47;2.50;;;2.30;;
6755;SDS011;3415;51.148;7.014;2022-08-01T17:08:15;2.90;;;2.70;;
6755;SDS011;3415;51.148;7.014;2022-08-01T17:10:43;3.83;;;2.67;;
6755;SDS011;3415;51.148;7.014;2022-08-01T17:13:10;2.83;;;2.63;;
6755;SDS011;3415;51.148;7.014;2022-08-01T17:15:37;3.43;;;2.83;;
6755;SDS011;3415;51.148;7.014;2022-08-01T17:18:04;5.20;;;2.80;;
6755;SDS011;3415;51.148;7.014;2022-08-01T17:20:33;3.00;;;2.70;;
6755;SDS011;3415;51.148;7.014;2022-08-01T17:23:00;2.73;;;2.53;;
6755;SDS011;3415;51.148;7.014;2022-08-01T17:25:27;3.13;;;2.50;;
6755;SDS011;3415;51.148;7.014;2022-08-01T17:27:54;2.77;;;2.57;;
6755;SDS011;3415;51.148;7.014;2022-08-01T17:30:21;3.13;;;2.90;;
6755;SDS011;3415;51.148;7.014;2022-08-01T17:32:49;4.73;;;4.33;;
6755;SDS011;3415;51.148;7.014;2022-08-01T17:35:16;9.63;;;5.60;;
6755;SDS011;3415;51.148;7.014;2022-08-01T17:37:45;6.20;;;3.10;;
6755;SDS011;3415;51.148;7.014;2022-08-01T17:40:12;3.87;;;3.47;;
6755;SDS011;3415;51.148;7.014;2022-08-01T17:42:40;4.40;;;3.37;;
6755;SDS011;3415;51.148;7.014;2022-08-01T17:45:08;2.40;;;2.17;;
6755;SDS011;3415;51.148;7.014;2022-08-01T17:47:36;3.53;;;2.80;;
6755;SDS011;3415;51.148;7.014;2022-08-01T17:50:05;3.33;;;2.90;;
6755;SDS011;3415;51.148;7.014;2022-08-01T17:52:35;2.80;;;2.60;;
6755;SDS011;3415;51.148;7.014;2022-08-01T17:55:04;2.60;;;2.40;;
6755;SDS011;3415;51.148;7.014;2022-08-01T17:57:32;2.47;;;2.27;;
6755;SDS011;3415;51.148;7.014;2022-08-01T18:00:00;2.77;;;2.57;;
6755;SDS011;3415;51.148;7.014;2022-08-01T18:02:27;2.90;;;2.40;;
6755;SDS011;3415;51.148;7.014;2022-08-01T18:04:54;3.97;;;2.20;;
6755;SDS011;3415;51.148;7.014;2022-08-01T18:07:21;2.50;;;2.10;;
6755;SDS011;3415;51.148;7.014;2022-08-01T18:09:49;3.27;;;1.87;;
6755;SDS011;3415;51.148;7.014;2022-08-01T18:12:18;4.83;;;2.30;;
6755;SDS011;3415;51.148;7.014;2022-08-01T18:14:45;2.10;;;1.77;;
6755;SDS011;3415;51.148;7.014;2022-08-01T18:17:12;2.53;;;2.20;;
6755;SDS011;3415;51.148;7.014;2022-08-01T18:19:40;1.83;;;1.70;;
6755;SDS011;3415;51.148;7.014;2022-08-01T18:22:07;2.77;;;2.47;;
6755;SDS011;3415;51.148;7.014;2022-08-01T18:24:36;2.87;;;1.90;;
6755;SDS011;3415;51.148;7.014;2022-08-01T18:27:03;2.50;;;1.87;;
6755;SDS011;3415;51.148;7.014;2022-08-01T18:29:32;2.13;;;1.70;;
6755;SDS011;3415;51.148;7.014;2022-08-01T18:31:59;1.67;;;1.50;;
6755;SDS011;3415;51.148;7.014;2022-08-01T18:34:28;1.67;;;1.57;;
6755;SDS011;3415;51.148;7.014;2022-08-01T18:36:55;2.50;;;1.97;;
6755;SDS011;3415;51.148;7.014;2022-08-01T18:39:22;4.17;;;2.17;;
6755;SDS011;3415;51.148;7.014;2022-08-01T18:41:49;2.77;;;2.47;;
6755;SDS011;3415;51.148;7.014;2022-08-01T18:44:16;1.87;;;1.60;;
6755;SDS011;3415;51.148;7.014;2022-08-01T18:46:45;2.30;;;2.10;;
6755;SDS011;3415;51.148;7.014;2022-08-01T18:49:11;4.20;;;1.80;;
6755;SDS011;3415;51.148;7.014;2022-08-01T18:51:39;2.20;;;2.00;;
6755;SDS011;3415;51.148;7.014;2022-08-01T18:54:06;2.40;;;1.70;;
6755;SDS011;3415;51.148;7.014;2022-08-01T18:56:33;3.03;;;1.43;;
6755;SDS011;3415;51.148;7.014;2022-08-01T18:59:01;1.47;;;1.30;;
6755;SDS011;3415;51.148;7.014;2022-08-01T19:01:29;2.20;;;2.00;;
6755;SDS011;3415;51.148;7.014;2022-08-01T19:03:57;3.20;;;1.70;;
6755;SDS011;3415;51.148;7.014;2022-08-01T19:06:24;3.27;;;1.90;;
6755;SDS011;3415;51.148;7.014;2022-08-01T19:08:52;4.23;;;1.83;;
6755;SDS011;3415;51.148;7.014;2022-08-01T19:11:19;14.30;;;1.90;;
6755;SDS011;3415;51.148;7.014;2022-08-01T19:13:47;2.77;;;2.10;;
6755;SDS011;3415;51.148;7.014;2022-08-01T19:16:14;3.90;;;2.07;;
6755;SDS011;3415;51.148;7.014;2022-08-01T19:18:42;2.03;;;1.87;;
6755;SDS011;3415;51.148;7.014;2022-08-01T19:21:11;3.53;;;1.63;;
6755;SDS011;3415;51.148;7.014;2022-08-01T19:23:38;2.60;;;1.77;;
6755;SDS011;3415;51.148;7.014;2022-08-01T19:26:23;1.87;;;1.73;;
6755;SDS011;3415;51.148;7.014;2022-08-01T19:28:52;3.13;;;1.70;;
6755;SDS011;3415;51.148;7.014;2022-08-01T19:31:24;1.60;;;1.50;;
6755;SDS011;3415;51.148;7.014;2022-08-01T19:33:53;1.90;;;1.50;;
6755;SDS011;3415;51.148;7.014;2022-08-01T19:36:23;1.53;;;1.43;;
6755;SDS011;3415;51.148;7.014;2022-08-01T19:38:51;4.53;;;1.90;;
6755;SDS011;3415;51.148;7.014;2022-08-01T19:41:19;1.90;;;1.80;;
6755;SDS011;3415;51.148;7.014;2022-08-01T19:43:47;1.80;;;1.70;;
6755;SDS011;3415;51.148;7.014;2022-08-01T19:46:16;1.90;;;1.80;;
6755;SDS011;3415;51.148;7.014;2022-08-01T19:48:43;2.07;;;1.87;;
6755;SDS011;3415;51.148;7.014;2022-08-01T19:51:14;2.10;;;1.53;;
6755;SDS011;3415;51.148;7.014;2022-08-01T19:53:47;8.07;;;1.90;;
6755;SDS011;3415;51.148;7.014;2022-08-01T19:56:16;1.93;;;1.83;;
6755;SDS011;3415;51.148;7.014;2022-08-01T19:58:47;2.10;;;1.70;;
6755;SDS011;3415;51.148;7.014;2022-08-01T20:01:18;2.27;;;1.70;;
6755;SDS011;3415;51.148;7.014;2022-08-01T20:03:47;1.87;;;1.77;;
6755;SDS011;3415;51.148;7.014;2022-08-01T20:06:16;1.83;;;1.73;;
6755;SDS011;3415;51.148;7.014;2022-08-01T20:08:45;1.80;;;1.70;;
6755;SDS011;3415;51.148;7.014;2022-08-01T20:11:13;2.00;;;1.80;;
6755;SDS011;3415;51.148;7.014;2022-08-01T20:13:42;2.20;;;2.00;;
6755;SDS011;3415;51.148;7.014;2022-08-01T20:16:10;2.90;;;1.83;;
6755;SDS011;3415;51.148;7.014;2022-08-01T20:18:38;2.07;;;1.97;;
6755;SDS011;3415;51.148;7.014;2022-08-01T20:21:05;3.90;;;2.80;;
6755;SDS011;3415;51.148;7.014;2022-08-01T20:23:37;4.23;;;2.47;;
6755;SDS011;3415;51.148;7.014;2022-08-01T20:26:11;5.03;;;2.50;;
6755;SDS011;3415;51.148;7.014;2022-08-01T20:28:40;7.03;;;2.77;;
6755;SDS011;3415;51.148;7.014;2022-08-01T20:31:15;4.10;;;3.43;;
6755;SDS011;3415;51.148;7.014;2022-08-01T20:33:43;3.93;;;3.53;;
6755;SDS011;3415;51.148;7.014;2022-08-01T20:36:13;6.03;;;3.77;;
6755;SDS011;3415;51.148;7.014;2022-08-01T20:38:42;6.27;;;4.60;;
6755;SDS011;3415;51.148;7.014;2022-08-01T20:41:12;3.80;;;3.40;;
6755;SDS011;3415;51.148;7.014;2022-08-01T20:43:39;3.70;;;2.97;;
6755;SDS011;3415;51.148;7.014;2022-08-01T20:46:06;3.60;;;3.10;;
6755;SDS011;3415;51.148;7.014;2022-08-01T20:48:35;7.00;;;3.20;;
6755;SDS011;3415;51.148;7.014;2022-08-01T20:51:03;5.73;;;3.47;;
6755;SDS011;3415;51.148;7.014;2022-08-01T20:53:43;6.93;;;4.00;;
6755;SDS011;3415;51.148;7.014;2022-08-01T20:56:18;4.77;;;4.10;;
6755;SDS011;3415;51.148;7.014;2022-08-01T20:58:59;3.70;;;3.10;;
6755;SDS011;3415;51.148;7.014;2022-08-01T21:01:33;5.50;;;4.03;;
6755;SDS011;3415;51.148;7.014;2022-08-01T21:04:15;5.03;;;4.53;;
6755;SDS011;3415;51.148;7.014;2022-08-01T21:06:57;6.43;;;4.43;;
6755;SDS011;3415;51.148;7.014;2022-08-01T21:09:34;5.80;;;4.03;;
6755;SDS011;3415;51.148;7.014;2022-08-01T21:12:05;6.53;;;4.00;;
6755;SDS011;3415;51.148;7.014;2022-08-01T21:14:45;7.47;;;3.20;;
6755;SDS011;3415;51.148;7.014;2022-08-01T21:17:17;5.33;;;2.83;;
6755;SDS011;3415;51.148;7.014;2022-08-01T21:19:53;5.00;;;3.23;;
6755;SDS011;3415;51.148;7.014;2022-08-01T21:22:27;4.90;;;3.20;;
6755;SDS011;3415;51.148;7.014;2022-08-01T21:25:03;3.70;;;2.87;;
6755;SDS011;3415;51.148;7.014;2022-08-01T21:27:36;3.87;;;2.67;;
6755;SDS011;3415;51.148;7.014;2022-08-01T21:30:06;9.60;;;2.90;;
6755;SDS011;3415;51.148;7.014;2022-08-01T21:32:35;3.10;;;2.80;;
6755;SDS011;3415;51.148;7.014;2022-08-01T21:35:03;3.23;;;2.70;;
6755;SDS011;3415;51.148;7.014;2022-08-01T21:37:31;8.13;;;3.30;;
6755;SDS011;3415;51.148;7.014;2022-08-01T21:40:02;7.47;;;3.20;;
6755;SDS011;3415;51.148;7.014;2022-08-01T21:42:30;3.07;;;2.77;;
6755;SDS011;3415;51.148;7.014;2022-08-01T21:44:59;3.83;;;2.87;;
6755;SDS011;3415;51.148;7.014;2022-08-01T21:47:28;3.97;;;2.50;;
6755;SDS011;3415;51.148;7.014;2022-08-01T21:49:59;3.60;;;2.83;;
6755;SDS011;3415;51.148;7.014;2022-08-01T21:52:29;4.63;;;2.97;;
6755;SDS011;3415;51.148;7.014;2022-08-01T21:55:09;2.90;;;2.60;;
6755;SDS011;3415;51.148;7.014;2022-08-01T21:58:01;3.67;;;2.70;;
6755;SDS011;3415;51.148;7.014;2022-08-01T22:00:50;4.20;;;2.80;;
6755;SDS011;3415;51.148;7.014;2022-08-01T22:03:24;3.23;;;2.90;;
6755;SDS011;3415;51.148;7.014;2022-08-01T22:05:55;3.13;;;2.67;;
6755;SDS011;3415;51.148;7.014;2022-08-01T22:08:27;3.30;;;3.00;;
6755;SDS011;3415;51.148;7.014;2022-08-01T22:11:01;4.80;;;3.27;;
